sensor_id;sensor_type;location;lat;lon;timestamp;temperature;humidity
17208;DHT22;8720;48.488;9.202;2023-05-03T00:00:41;10.80;53.70
17208;DHT22;8720;48.488;9.202;2023-05-03T00:03:09;10.70;53.00
17208;DHT22;8720;48.488;9.202;2023-05-03T00:05:38;10.70;53.60
17208;DHT22;8720;48.488;9.202;2023-05-03T00:08:06;10.70;53.10
17208;DHT22;8720;48.488;9.202;2023-05-03T00:10:34;10.70;53.30
17208;DHT22;8720;48.488;9.202;2023-05-03T00:13:01;10.60;53.10
17208;DHT22;8720;48.488;9.202;2023-05-03T00:15:28;10.60;53.20
17208;DHT22;8720;48.488;9.202;2023-05-03T00:17:56;10.60;53.30
17208;DHT22;8720;48.488;9.202;2023-05-03T00:20:23;10.50;53.40
17208;DHT22;8720;48.488;9.202;2023-05-03T00:22:51;10.50;53.50
17208;DHT22;8720;48.488;9.202;2023-05-03T00:25:19;10.50;53.60
17208;DHT22;8720;48.488;9.202;2023-05-03T00:27:46;10.50;53.70
17208;DHT22;8720;48.488;9.202;2023-05-03T00:30:14;10.40;53.60
17208;DHT22;8720;48.488;9.202;2023-05-03T00:32:43;10.40;53.70
17208;DHT22;8720;48.488;9.202;2023-05-03T00:35:10;10.40;53.90
17208;DHT22;8720;48.488;9.202;2023-05-03T00:37:38;10.30;53.90
17208;DHT22;8720;48.488;9.202;2023-05-03T00:40:07;10.30;54.00
17208;DHT22;8720;48.488;9.202;2023-05-03T00:42:36;10.30;54.20
17208;DHT22;8720;48.488;9.202;2023-05-03T00:45:04;10.30;54.30
17208;DHT22;8720;48.488;9.202;2023-05-03T00:47:32;10.20;54.20
17208;DHT22;8720;48.488;9.202;2023-05-03T00:50:00;10.20;54.30
17208;DHT22;8720;48.488;9.202;2023-05-03T00:52:28;10.20;54.30
17208;DHT22;8720;48.488;9.202;2023-05-03T00:54:56;10.10;54.30
17208;DHT22;8720;48.488;9.202;2023-05-03T00:57:25;10.10;54.40
17208;DHT22;8720;48.488;9.202;2023-05-03T00:59:56;10.10;54.60
17208;DHT22;8720;48.488;9.202;2023-05-03T01:02:23;10.10;54.70
17208;DHT22;8720;48.488;9.202;2023-05-03T01:04:51;10.10;54.70
17208;DHT22;8720;48.488;9.202;2023-05-03T01:07:26;10.00;54.80
17208;DHT22;8720;48.488;9.202;2023-05-03T01:10:09;10.00;55.00
17208;DHT22;8720;48.488;9.202;2023-05-03T01:12:54;10.00;55.30
17208;DHT22;8720;48.488;9.202;2023-05-03T01:15:43;10.00;56.10
17208;DHT22;8720;48.488;9.202;2023-05-03T01:18:17;10.00;55.70
17208;DHT22;8720;48.488;9.202;2023-05-03T01:20:49;9.90;56.30
17208;DHT22;8720;48.488;9.202;2023-05-03T01:23:27;9.90;56.40
17208;DHT22;8720;48.488;9.202;2023-05-03T01:26:13;9.90;56.80
17208;DHT22;8720;48.488;9.202;2023-05-03T01:28:42;9.90;56.80
17208;DHT22;8720;48.488;9.202;2023-05-03T01:31:10;9.90;56.30
17208;DHT22;8720;48.488;9.202;2023-05-03T01:33:46;9.90;56.40
17208;DHT22;8720;48.488;9.202;2023-05-03T01:36:22;9.80;56.70
17208;DHT22;8720;48.488;9.202;2023-05-03T01:38:58;9.80;57.10
17208;DHT22;8720;48.488;9.202;2023-05-03T01:41:31;9.80;56.50
17208;DHT22;8720;48.488;9.202;2023-05-03T01:44:02;9.80;56.80
17208;DHT22;8720;48.488;9.202;2023-05-03T01:46:30;9.80;56.70
17208;DHT22;8720;48.488;9.202;2023-05-03T01:48:58;9.80;56.60
17208;DHT22;8720;48.488;9.202;2023-05-03T01:51:25;9.70;56.60
17208;DHT22;8720;48.488;9.202;2023-05-03T01:53:52;9.70;56.60
17208;DHT22;8720;48.488;9.202;2023-05-03T01:56:19;9.70;56.70
17208;DHT22;8720;48.488;9.202;2023-05-03T01:58:48;9.60;56.60
17208;DHT22;8720;48.488;9.202;2023-05-03T02:01:16;9.60;56.90
17208;DHT22;8720;48.488;9.202;2023-05-03T02:03:43;9.60;56.90
17208;DHT22;8720;48.488;9.202;2023-05-03T02:06:11;9.60;57.00
17208;DHT22;8720;48.488;9.202;2023-05-03T02:08:38;9.60;57.10
17208;DHT22;8720;48.488;9.202;2023-05-03T02:11:05;9.50;57.10
17208;DHT22;8720;48.488;9.202;2023-05-03T02:13:33;9.50;57.20
17208;DHT22;8720;48.488;9.202;2023-05-03T02:16:02;9.50;57.30
17208;DHT22;8720;48.488;9.202;2023-05-03T02:18:29;9.50;57.60
17208;DHT22;8720;48.488;9.202;2023-05-03T02:20:58;9.50;57.50
17208;DHT22;8720;48.488;9.202;2023-05-03T02:23:25;9.50;57.50
17208;DHT22;8720;48.488;9.202;2023-05-03T02:25:53;9.50;57.50
17208;DHT22;8720;48.488;9.202;2023-05-03T02:28:20;9.50;57.50
17208;DHT22;8720;48.488;9.202;2023-05-03T02:30:47;9.40;57.40
17208;DHT22;8720;48.488;9.202;2023-05-03T02:33:16;9.40;57.50
17208;DHT22;8720;48.488;9.202;2023-05-03T02:35:43;9.40;57.70
17208;DHT22;8720;48.488;9.202;2023-05-03T02:38:10;9.40;57.60
17208;DHT22;8720;48.488;9.202;2023-05-03T02:40:38;9.40;57.70
17208;DHT22;8720;48.488;9.202;2023-05-03T02:43:05;9.40;57.70
17208;DHT22;8720;48.488;9.202;2023-05-03T02:45:34;9.40;57.70
17208;DHT22;8720;48.488;9.202;2023-05-03T02:48:02;9.40;57.90
17208;DHT22;8720;48.488;9.202;2023-05-03T02:50:31;9.40;57.80
17208;DHT22;8720;48.488;9.202;2023-05-03T02:52:58;9.40;57.90
17208;DHT22;8720;48.488;9.202;2023-05-03T02:55:26;9.40;57.70
17208;DHT22;8720;48.488;9.202;2023-05-03T02:57:53;9.40;57.80
17208;DHT22;8720;48.488;9.202;2023-05-03T03:00:21;9.40;57.80
17208;DHT22;8720;48.488;9.202;2023-05-03T03:02:48;9.40;57.80
17208;DHT22;8720;48.488;9.202;2023-05-03T03:05:16;9.40;57.90
17208;DHT22;8720;48.488;9.202;2023-05-03T03:07:49;9.40;57.90
17208;DHT22;8720;48.488;9.202;2023-05-03T03:10:17;9.30;58.00
17208;DHT22;8720;48.488;9.202;2023-05-03T03:12:44;9.30;57.90
17208;DHT22;8720;48.488;9.202;2023-05-03T03:15:21;9.30;57.90
17208;DHT22;8720;48.488;9.202;2023-05-03T03:17:49;9.30;57.90
17208;DHT22;8720;48.488;9.202;2023-05-03T03:20:17;9.30;57.90
17208;DHT22;8720;48.488;9.202;2023-05-03T03:22:48;9.20;57.90
17208;DHT22;8720;48.488;9.202;2023-05-03T03:25:15;9.20;57.90
17208;DHT22;8720;48.488;9.202;2023-05-03T03:27:42;9.20;57.80
17208;DHT22;8720;48.488;9.202;2023-05-03T03:30:10;9.20;57.90
17208;DHT22;8720;48.488;9.202;2023-05-03T03:32:48;9.10;57.80
17208;DHT22;8720;48.488;9.202;2023-05-03T03:35:24;9.10;57.70
17208;DHT22;8720;48.488;9.202;2023-05-03T03:37:52;9.10;57.90
17208;DHT22;8720;48.488;9.202;2023-05-03T03:40:21;9.00;57.90
17208;DHT22;8720;48.488;9.202;2023-05-03T03:42:52;9.00;58.00
17208;DHT22;8720;48.488;9.202;2023-05-03T03:45:19;9.00;58.00
17208;DHT22;8720;48.488;9.202;2023-05-03T03:47:47;9.00;58.10
17208;DHT22;8720;48.488;9.202;2023-05-03T03:50:15;8.90;58.00
17208;DHT22;8720;48.488;9.202;2023-05-03T03:52:42;8.90;58.10
17208;DHT22;8720;48.488;9.202;2023-05-03T03:55:11;8.90;58.20
17208;DHT22;8720;48.488;9.202;2023-05-03T03:57:39;8.80;58.30
17208;DHT22;8720;48.488;9.202;2023-05-03T04:00:07;8.80;58.20
17208;DHT22;8720;48.488;9.202;2023-05-03T04:02:44;8.80;58.40
17208;DHT22;8720;48.488;9.202;2023-05-03T04:05:15;8.80;58.30
17208;DHT22;8720;48.488;9.202;2023-05-03T04:07:44;8.80;58.30
17208;DHT22;8720;48.488;9.202;2023-05-03T04:10:15;8.80;58.50
17208;DHT22;8720;48.488;9.202;2023-05-03T04:12:43;8.80;58.70
17208;DHT22;8720;48.488;9.202;2023-05-03T04:15:12;8.70;59.30
17208;DHT22;8720;48.488;9.202;2023-05-03T04:17:42;8.70;59.50
17208;DHT22;8720;48.488;9.202;2023-05-03T04:20:11;8.80;59.10
17208;DHT22;8720;48.488;9.202;2023-05-03T04:22:42;8.80;60.00
17208;DHT22;8720;48.488;9.202;2023-05-03T04:25:11;8.80;59.60
17208;DHT22;8720;48.488;9.202;2023-05-03T04:27:43;8.90;59.80
17208;DHT22;8720;48.488;9.202;2023-05-03T04:30:12;8.90;60.00
17208;DHT22;8720;48.488;9.202;2023-05-03T04:32:42;9.00;60.20
17208;DHT22;8720;48.488;9.202;2023-05-03T04:35:11;9.00;60.40
17208;DHT22;8720;48.488;9.202;2023-05-03T04:37:43;9.10;60.70
17208;DHT22;8720;48.488;9.202;2023-05-03T04:40:14;9.20;60.70
17208;DHT22;8720;48.488;9.202;2023-05-03T04:42:49;9.20;60.80
17208;DHT22;8720;48.488;9.202;2023-05-03T04:45:16;9.30;61.70
17208;DHT22;8720;48.488;9.202;2023-05-03T04:47:46;9.40;61.60
17208;DHT22;8720;48.488;9.202;2023-05-03T04:50:14;9.50;61.70
17208;DHT22;8720;48.488;9.202;2023-05-03T04:52:44;9.50;61.60
17208;DHT22;8720;48.488;9.202;2023-05-03T04:55:12;9.60;61.50
17208;DHT22;8720;48.488;9.202;2023-05-03T04:57:41;9.70;61.40
17208;DHT22;8720;48.488;9.202;2023-05-03T05:00:13;9.80;61.20
17208;DHT22;8720;48.488;9.202;2023-05-03T05:02:45;9.80;61.10
17208;DHT22;8720;48.488;9.202;2023-05-03T05:05:13;9.90;61.00
17208;DHT22;8720;48.488;9.202;2023-05-03T05:07:41;9.90;61.00
17208;DHT22;8720;48.488;9.202;2023-05-03T05:10:11;10.00;60.00
17208;DHT22;8720;48.488;9.202;2023-05-03T05:12:39;10.10;60.00
17208;DHT22;8720;48.488;9.202;2023-05-03T05:15:08;10.20;60.00
17208;DHT22;8720;48.488;9.202;2023-05-03T05:17:37;10.20;60.00
17208;DHT22;8720;48.488;9.202;2023-05-03T05:20:06;10.30;60.00
17208;DHT22;8720;48.488;9.202;2023-05-03T05:22:38;10.40;60.00
17208;DHT22;8720;48.488;9.202;2023-05-03T05:25:08;10.40;59.90
17208;DHT22;8720;48.488;9.202;2023-05-03T05:27:35;10.50;60.00
17208;DHT22;8720;48.488;9.202;2023-05-03T05:30:05;10.60;60.10
17208;DHT22;8720;48.488;9.202;2023-05-03T05:32:34;10.60;59.80
17208;DHT22;8720;48.488;9.202;2023-05-03T05:35:03;10.70;59.70
17208;DHT22;8720;48.488;9.202;2023-05-03T05:37:31;10.80;59.90
17208;DHT22;8720;48.488;9.202;2023-05-03T05:40:01;10.80;60.40
17208;DHT22;8720;48.488;9.202;2023-05-03T05:42:36;10.90;59.70
17208;DHT22;8720;48.488;9.202;2023-05-03T05:45:04;11.00;59.70
17208;DHT22;8720;48.488;9.202;2023-05-03T05:47:33;11.00;59.60
17208;DHT22;8720;48.488;9.202;2023-05-03T05:50:03;11.10;59.40
17208;DHT22;8720;48.488;9.202;2023-05-03T05:52:32;11.20;59.50
17208;DHT22;8720;48.488;9.202;2023-05-03T05:55:00;11.30;59.60
17208;DHT22;8720;48.488;9.202;2023-05-03T05:57:27;11.30;59.60
17208;DHT22;8720;48.488;9.202;2023-05-03T05:59:54;11.40;59.40
17208;DHT22;8720;48.488;9.202;2023-05-03T06:02:22;11.50;59.20
17208;DHT22;8720;48.488;9.202;2023-05-03T06:04:50;11.50;59.10
17208;DHT22;8720;48.488;9.202;2023-05-03T06:07:19;11.60;59.20
17208;DHT22;8720;48.488;9.202;2023-05-03T06:09:46;11.70;59.10
17208;DHT22;8720;48.488;9.202;2023-05-03T06:12:14;11.70;59.00
17208;DHT22;8720;48.488;9.202;2023-05-03T06:14:42;11.80;59.00
17208;DHT22;8720;48.488;9.202;2023-05-03T06:17:09;11.80;58.90
17208;DHT22;8720;48.488;9.202;2023-05-03T06:19:36;11.90;59.10
17208;DHT22;8720;48.488;9.202;2023-05-03T06:22:04;11.90;59.00
17208;DHT22;8720;48.488;9.202;2023-05-03T06:24:35;12.00;59.10
17208;DHT22;8720;48.488;9.202;2023-05-03T06:27:02;12.00;59.10
17208;DHT22;8720;48.488;9.202;2023-05-03T06:29:31;12.10;59.10
17208;DHT22;8720;48.488;9.202;2023-05-03T06:31:58;12.10;59.10
17208;DHT22;8720;48.488;9.202;2023-05-03T06:34:26;12.20;59.20
17208;DHT22;8720;48.488;9.202;2023-05-03T06:36:54;12.30;59.10
17208;DHT22;8720;48.488;9.202;2023-05-03T06:39:22;12.40;59.00
17208;DHT22;8720;48.488;9.202;2023-05-03T06:41:51;12.50;59.10
17208;DHT22;8720;48.488;9.202;2023-05-03T06:44:19;12.70;59.00
17208;DHT22;8720;48.488;9.202;2023-05-03T06:46:46;12.80;58.90
17208;DHT22;8720;48.488;9.202;2023-05-03T06:49:14;12.90;58.70
17208;DHT22;8720;48.488;9.202;2023-05-03T06:51:41;13.00;58.50
17208;DHT22;8720;48.488;9.202;2023-05-03T06:54:09;13.00;58.50
17208;DHT22;8720;48.488;9.202;2023-05-03T06:56:36;13.20;58.60
17208;DHT22;8720;48.488;9.202;2023-05-03T06:59:05;13.30;58.80
17208;DHT22;8720;48.488;9.202;2023-05-03T07:01:33;13.40;58.70
17208;DHT22;8720;48.488;9.202;2023-05-03T07:04:01;13.60;58.80
17208;DHT22;8720;48.488;9.202;2023-05-03T07:06:28;13.80;58.90
17208;DHT22;8720;48.488;9.202;2023-05-03T07:08:56;14.10;58.30
17208;DHT22;8720;48.488;9.202;2023-05-03T07:11:23;14.30;58.10
17208;DHT22;8720;48.488;9.202;2023-05-03T07:13:50;14.50;57.20
17208;DHT22;8720;48.488;9.202;2023-05-03T07:16:19;14.60;56.60
17208;DHT22;8720;48.488;9.202;2023-05-03T07:18:50;14.60;56.00
17208;DHT22;8720;48.488;9.202;2023-05-03T07:21:17;14.70;55.70
17208;DHT22;8720;48.488;9.202;2023-05-03T07:23:44;14.70;55.50
17208;DHT22;8720;48.488;9.202;2023-05-03T07:26:11;14.70;55.50
17208;DHT22;8720;48.488;9.202;2023-05-03T07:28:39;14.80;55.70
17208;DHT22;8720;48.488;9.202;2023-05-03T07:31:06;14.90;55.80
17208;DHT22;8720;48.488;9.202;2023-05-03T07:33:35;14.90;55.60
17208;DHT22;8720;48.488;9.202;2023-05-03T07:36:03;15.10;55.30
17208;DHT22;8720;48.488;9.202;2023-05-03T07:38:30;15.20;55.80
17208;DHT22;8720;48.488;9.202;2023-05-03T07:40:58;15.40;56.50
17208;DHT22;8720;48.488;9.202;2023-05-03T07:43:25;15.70;56.70
17208;DHT22;8720;48.488;9.202;2023-05-03T07:45:53;16.10;56.70
17208;DHT22;8720;48.488;9.202;2023-05-03T07:48:21;16.40;57.00
17208;DHT22;8720;48.488;9.202;2023-05-03T07:50:49;16.80;55.80
17208;DHT22;8720;48.488;9.202;2023-05-03T07:53:17;17.10;55.00
17208;DHT22;8720;48.488;9.202;2023-05-03T07:55:44;17.40;54.90
17208;DHT22;8720;48.488;9.202;2023-05-03T07:58:11;17.70;54.50
17208;DHT22;8720;48.488;9.202;2023-05-03T08:00:38;18.00;53.70
17208;DHT22;8720;48.488;9.202;2023-05-03T08:03:06;18.20;53.40
17208;DHT22;8720;48.488;9.202;2023-05-03T08:05:33;18.40;53.10
17208;DHT22;8720;48.488;9.202;2023-05-03T08:08:02;18.60;52.80
17208;DHT22;8720;48.488;9.202;2023-05-03T08:10:30;18.80;52.10
17208;DHT22;8720;48.488;9.202;2023-05-03T08:13:03;19.00;52.30
17208;DHT22;8720;48.488;9.202;2023-05-03T08:15:31;19.20;51.80
17208;DHT22;8720;48.488;9.202;2023-05-03T08:17:58;19.40;51.20
17208;DHT22;8720;48.488;9.202;2023-05-03T08:20:26;19.50;50.50
17208;DHT22;8720;48.488;9.202;2023-05-03T08:22:54;19.60;50.10
17208;DHT22;8720;48.488;9.202;2023-05-03T08:25:23;19.70;49.80
17208;DHT22;8720;48.488;9.202;2023-05-03T08:27:53;19.70;49.00
17208;DHT22;8720;48.488;9.202;2023-05-03T08:30:20;19.80;49.40
17208;DHT22;8720;48.488;9.202;2023-05-03T08:32:47;19.90;48.80
17208;DHT22;8720;48.488;9.202;2023-05-03T08:35:16;19.90;48.60
17208;DHT22;8720;48.488;9.202;2023-05-03T08:37:43;19.90;48.30
17208;DHT22;8720;48.488;9.202;2023-05-03T08:40:11;20.00;48.20
17208;DHT22;8720;48.488;9.202;2023-05-03T08:42:42;19.90;48.00
17208;DHT22;8720;48.488;9.202;2023-05-03T08:45:12;19.80;47.70
17208;DHT22;8720;48.488;9.202;2023-05-03T08:47:41;19.80;47.90
17208;DHT22;8720;48.488;9.202;2023-05-03T08:50:10;19.60;48.10
17208;DHT22;8720;48.488;9.202;2023-05-03T08:52:39;19.60;48.00
17208;DHT22;8720;48.488;9.202;2023-05-03T08:55:08;19.40;47.80
17208;DHT22;8720;48.488;9.202;2023-05-03T08:57:36;19.40;48.00
17208;DHT22;8720;48.488;9.202;2023-05-03T09:00:06;19.20;47.60
17208;DHT22;8720;48.488;9.202;2023-05-03T09:02:38;19.20;47.60
17208;DHT22;8720;48.488;9.202;2023-05-03T09:08:07;19.00;47.50
17208;DHT22;8720;48.488;9.202;2023-05-03T09:10:38;18.90;48.10
17208;DHT22;8720;48.488;9.202;2023-05-03T09:13:07;18.90;48.80
17208;DHT22;8720;48.488;9.202;2023-05-03T09:15:36;18.90;48.40
17208;DHT22;8720;48.488;9.202;2023-05-03T09:18:11;18.80;48.20
17208;DHT22;8720;48.488;9.202;2023-05-03T09:20:41;18.80;48.00
17208;DHT22;8720;48.488;9.202;2023-05-03T09:23:16;18.80;48.50
17208;DHT22;8720;48.488;9.202;2023-05-03T09:25:46;18.80;48.40
17208;DHT22;8720;48.488;9.202;2023-05-03T09:28:17;18.80;48.40
17208;DHT22;8720;48.488;9.202;2023-05-03T09:30:47;18.70;48.20
17208;DHT22;8720;48.488;9.202;2023-05-03T09:33:15;18.70;48.50
17208;DHT22;8720;48.488;9.202;2023-05-03T09:35:59;18.70;48.70
17208;DHT22;8720;48.488;9.202;2023-05-03T09:38:31;18.70;48.70
17208;DHT22;8720;48.488;9.202;2023-05-03T09:40:59;18.80;48.70
17208;DHT22;8720;48.488;9.202;2023-05-03T09:43:27;18.80;48.80
17208;DHT22;8720;48.488;9.202;2023-05-03T09:46:08;18.80;48.90
17208;DHT22;8720;48.488;9.202;2023-05-03T09:48:36;18.80;48.50
17208;DHT22;8720;48.488;9.202;2023-05-03T09:51:04;18.90;48.90
17208;DHT22;8720;48.488;9.202;2023-05-03T09:53:33;18.90;48.60
17208;DHT22;8720;48.488;9.202;2023-05-03T09:56:03;18.90;48.60
17208;DHT22;8720;48.488;9.202;2023-05-03T09:58:34;19.00;48.60
17208;DHT22;8720;48.488;9.202;2023-05-03T10:01:03;19.00;48.20
17208;DHT22;8720;48.488;9.202;2023-05-03T10:03:35;19.00;48.10
17208;DHT22;8720;48.488;9.202;2023-05-03T10:06:16;18.90;48.00
17208;DHT22;8720;48.488;9.202;2023-05-03T10:08:52;18.90;48.10
17208;DHT22;8720;48.488;9.202;2023-05-03T10:11:23;18.90;47.90
17208;DHT22;8720;48.488;9.202;2023-05-03T10:13:53;18.90;47.90
17208;DHT22;8720;48.488;9.202;2023-05-03T10:16:26;18.90;48.00
17208;DHT22;8720;48.488;9.202;2023-05-03T10:19:03;18.90;47.90
17208;DHT22;8720;48.488;9.202;2023-05-03T10:21:50;19.00;48.00
17208;DHT22;8720;48.488;9.202;2023-05-03T10:24:22;19.00;47.70
17208;DHT22;8720;48.488;9.202;2023-05-03T10:26:50;19.00;47.90
17208;DHT22;8720;48.488;9.202;2023-05-03T10:29:46;19.00;47.80
17208;DHT22;8720;48.488;9.202;2023-05-03T10:32:32;19.00;47.20
17208;DHT22;8720;48.488;9.202;2023-05-03T10:35:02;19.10;47.00
17208;DHT22;8720;48.488;9.202;2023-05-03T10:37:32;19.10;47.50
17208;DHT22;8720;48.488;9.202;2023-05-03T10:40:08;19.10;47.60
17208;DHT22;8720;48.488;9.202;2023-05-03T10:42:42;19.10;47.00
17208;DHT22;8720;48.488;9.202;2023-05-03T10:45:20;19.10;47.20
17208;DHT22;8720;48.488;9.202;2023-05-03T10:48:16;19.10;46.90
17208;DHT22;8720;48.488;9.202;2023-05-03T10:50:47;19.10;47.00
17208;DHT22;8720;48.488;9.202;2023-05-03T10:53:36;19.10;47.20
17208;DHT22;8720;48.488;9.202;2023-05-03T10:56:06;19.00;46.70
17208;DHT22;8720;48.488;9.202;2023-05-03T10:58:36;19.10;47.20
17208;DHT22;8720;48.488;9.202;2023-05-03T11:01:04;19.10;47.20
17208;DHT22;8720;48.488;9.202;2023-05-03T11:03:42;19.10;47.30
17208;DHT22;8720;48.488;9.202;2023-05-03T11:06:29;19.20;46.40
17208;DHT22;8720;48.488;9.202;2023-05-03T11:08:58;19.20;46.00
17208;DHT22;8720;48.488;9.202;2023-05-03T11:11:26;19.20;46.40
17208;DHT22;8720;48.488;9.202;2023-05-03T11:13:53;19.30;46.40
17208;DHT22;8720;48.488;9.202;2023-05-03T11:16:21;19.30;46.30
17208;DHT22;8720;48.488;9.202;2023-05-03T11:18:50;19.40;46.20
17208;DHT22;8720;48.488;9.202;2023-05-03T11:21:18;19.50;45.80
17208;DHT22;8720;48.488;9.202;2023-05-03T11:23:46;19.50;45.90
17208;DHT22;8720;48.488;9.202;2023-05-03T11:26:14;19.60;45.80
17208;DHT22;8720;48.488;9.202;2023-05-03T11:28:42;19.60;45.60
17208;DHT22;8720;48.488;9.202;2023-05-03T11:31:10;19.70;45.60
17208;DHT22;8720;48.488;9.202;2023-05-03T11:33:39;19.70;45.50
17208;DHT22;8720;48.488;9.202;2023-05-03T11:36:08;19.80;45.70
17208;DHT22;8720;48.488;9.202;2023-05-03T11:38:38;19.90;45.50
17208;DHT22;8720;48.488;9.202;2023-05-03T11:41:11;19.90;45.50
17208;DHT22;8720;48.488;9.202;2023-05-03T11:43:41;20.00;44.60
17208;DHT22;8720;48.488;9.202;2023-05-03T11:46:10;20.00;44.80
17208;DHT22;8720;48.488;9.202;2023-05-03T11:48:42;20.00;44.80
17208;DHT22;8720;48.488;9.202;2023-05-03T11:51:11;20.00;44.70
17208;DHT22;8720;48.488;9.202;2023-05-03T11:53:39;20.10;44.70
17208;DHT22;8720;48.488;9.202;2023-05-03T11:56:10;20.20;44.90
17208;DHT22;8720;48.488;9.202;2023-05-03T11:58:49;20.20;44.50
17208;DHT22;8720;48.488;9.202;2023-05-03T12:01:18;20.30;43.80
17208;DHT22;8720;48.488;9.202;2023-05-03T12:03:47;20.30;44.10
17208;DHT22;8720;48.488;9.202;2023-05-03T12:06:21;20.30;44.00
17208;DHT22;8720;48.488;9.202;2023-05-03T12:08:49;20.30;44.00
17208;DHT22;8720;48.488;9.202;2023-05-03T12:11:16;20.30;44.10
17208;DHT22;8720;48.488;9.202;2023-05-03T12:13:43;20.40;44.10
17208;DHT22;8720;48.488;9.202;2023-05-03T12:16:11;20.40;43.90
17208;DHT22;8720;48.488;9.202;2023-05-03T12:18:44;20.40;43.80
17208;DHT22;8720;48.488;9.202;2023-05-03T12:21:15;20.50;43.80
17208;DHT22;8720;48.488;9.202;2023-05-03T12:23:44;20.50;43.60
17208;DHT22;8720;48.488;9.202;2023-05-03T12:26:15;20.60;43.20
17208;DHT22;8720;48.488;9.202;2023-05-03T12:28:44;20.70;43.00
17208;DHT22;8720;48.488;9.202;2023-05-03T12:31:12;20.70;43.10
17208;DHT22;8720;48.488;9.202;2023-05-03T12:33:39;20.70;42.40
17208;DHT22;8720;48.488;9.202;2023-05-03T12:36:06;20.80;42.00
17208;DHT22;8720;48.488;9.202;2023-05-03T12:38:35;20.80;41.80
17208;DHT22;8720;48.488;9.202;2023-05-03T12:41:03;20.90;41.70
17208;DHT22;8720;48.488;9.202;2023-05-03T12:43:31;20.90;41.10
17208;DHT22;8720;48.488;9.202;2023-05-03T12:45:58;20.90;41.00
17208;DHT22;8720;48.488;9.202;2023-05-03T12:48:28;21.00;41.20
17208;DHT22;8720;48.488;9.202;2023-05-03T12:50:55;21.00;40.60
17208;DHT22;8720;48.488;9.202;2023-05-03T12:53:23;21.00;40.80
17208;DHT22;8720;48.488;9.202;2023-05-03T12:55:51;21.00;40.40
17208;DHT22;8720;48.488;9.202;2023-05-03T12:58:21;21.00;40.50
17208;DHT22;8720;48.488;9.202;2023-05-03T13:00:48;21.10;40.00
17208;DHT22;8720;48.488;9.202;2023-05-03T13:03:16;21.10;40.20
17208;DHT22;8720;48.488;9.202;2023-05-03T13:05:44;21.20;39.90
17208;DHT22;8720;48.488;9.202;2023-05-03T13:08:11;21.30;40.00
17208;DHT22;8720;48.488;9.202;2023-05-03T13:10:38;21.30;39.40
17208;DHT22;8720;48.488;9.202;2023-05-03T13:13:06;21.40;38.80
17208;DHT22;8720;48.488;9.202;2023-05-03T13:15:35;21.40;38.60
17208;DHT22;8720;48.488;9.202;2023-05-03T13:18:05;21.40;37.90
17208;DHT22;8720;48.488;9.202;2023-05-03T13:20:34;21.40;38.10
17208;DHT22;8720;48.488;9.202;2023-05-03T13:23:02;21.40;37.90
17208;DHT22;8720;48.488;9.202;2023-05-03T13:25:29;21.40;37.80
17208;DHT22;8720;48.488;9.202;2023-05-03T13:27:59;21.40;38.00
17208;DHT22;8720;48.488;9.202;2023-05-03T13:30:26;21.40;37.70
17208;DHT22;8720;48.488;9.202;2023-05-03T13:32:55;21.40;37.60
17208;DHT22;8720;48.488;9.202;2023-05-03T13:35:22;21.50;37.40
17208;DHT22;8720;48.488;9.202;2023-05-03T13:37:51;21.50;37.30
17208;DHT22;8720;48.488;9.202;2023-05-03T13:40:18;21.50;36.80
17208;DHT22;8720;48.488;9.202;2023-05-03T13:42:45;21.50;36.90
17208;DHT22;8720;48.488;9.202;2023-05-03T13:45:13;21.50;37.10
17208;DHT22;8720;48.488;9.202;2023-05-03T13:47:41;21.60;37.30
17208;DHT22;8720;48.488;9.202;2023-05-03T13:50:10;21.70;37.60
17208;DHT22;8720;48.488;9.202;2023-05-03T13:52:37;21.70;37.10
17208;DHT22;8720;48.488;9.202;2023-05-03T13:55:07;21.70;37.30
17208;DHT22;8720;48.488;9.202;2023-05-03T13:57:35;21.80;37.40
17208;DHT22;8720;48.488;9.202;2023-05-03T14:00:02;21.70;37.00
17208;DHT22;8720;48.488;9.202;2023-05-03T14:02:31;21.70;36.70
17208;DHT22;8720;48.488;9.202;2023-05-03T14:04:58;21.70;37.00
17208;DHT22;8720;48.488;9.202;2023-05-03T14:07:27;21.70;37.10
17208;DHT22;8720;48.488;9.202;2023-05-03T14:09:54;21.70;36.40
17208;DHT22;8720;48.488;9.202;2023-05-03T14:12:22;21.70;36.40
17208;DHT22;8720;48.488;9.202;2023-05-03T14:14:50;21.70;36.20
17208;DHT22;8720;48.488;9.202;2023-05-03T14:17:19;21.70;36.50
17208;DHT22;8720;48.488;9.202;2023-05-03T14:19:46;21.80;36.40
17208;DHT22;8720;48.488;9.202;2023-05-03T14:22:14;21.80;36.20
17208;DHT22;8720;48.488;9.202;2023-05-03T14:24:42;21.90;36.30
17208;DHT22;8720;48.488;9.202;2023-05-03T14:27:10;22.00;35.40
17208;DHT22;8720;48.488;9.202;2023-05-03T14:29:38;22.00;35.80
17208;DHT22;8720;48.488;9.202;2023-05-03T14:32:06;21.90;36.00
17208;DHT22;8720;48.488;9.202;2023-05-03T14:34:33;21.90;35.80
17208;DHT22;8720;48.488;9.202;2023-05-03T14:37:00;21.90;35.90
17208;DHT22;8720;48.488;9.202;2023-05-03T14:39:28;21.80;35.70
17208;DHT22;8720;48.488;9.202;2023-05-03T14:41:56;21.70;35.80
17208;DHT22;8720;48.488;9.202;2023-05-03T14:44:24;21.60;35.20
17208;DHT22;8720;48.488;9.202;2023-05-03T14:46:52;21.50;35.60
17208;DHT22;8720;48.488;9.202;2023-05-03T14:49:23;21.50;35.80
17208;DHT22;8720;48.488;9.202;2023-05-03T14:51:50;21.40;35.60
17208;DHT22;8720;48.488;9.202;2023-05-03T14:54:17;21.50;35.30
17208;DHT22;8720;48.488;9.202;2023-05-03T14:56:47;21.50;34.60
17208;DHT22;8720;48.488;9.202;2023-05-03T14:59:16;21.40;34.60
17208;DHT22;8720;48.488;9.202;2023-05-03T15:01:43;21.40;34.20
17208;DHT22;8720;48.488;9.202;2023-05-03T15:04:11;21.40;34.30
17208;DHT22;8720;48.488;9.202;2023-05-03T15:06:38;21.40;34.10
17208;DHT22;8720;48.488;9.202;2023-05-03T15:09:07;21.50;34.40
17208;DHT22;8720;48.488;9.202;2023-05-03T15:11:36;21.50;34.20
17208;DHT22;8720;48.488;9.202;2023-05-03T15:14:04;21.50;34.20
17208;DHT22;8720;48.488;9.202;2023-05-03T15:16:33;21.60;34.40
17208;DHT22;8720;48.488;9.202;2023-05-03T15:19:00;21.60;34.10
17208;DHT22;8720;48.488;9.202;2023-05-03T15:21:27;21.60;34.30
17208;DHT22;8720;48.488;9.202;2023-05-03T15:23:55;21.60;34.40
17208;DHT22;8720;48.488;9.202;2023-05-03T15:26:22;21.60;34.00
17208;DHT22;8720;48.488;9.202;2023-05-03T15:28:50;21.70;33.70
17208;DHT22;8720;48.488;9.202;2023-05-03T15:31:17;21.70;33.30
17208;DHT22;8720;48.488;9.202;2023-05-03T15:33:46;21.70;33.50
17208;DHT22;8720;48.488;9.202;2023-05-03T15:36:14;21.70;33.90
17208;DHT22;8720;48.488;9.202;2023-05-03T15:38:42;21.70;33.20
17208;DHT22;8720;48.488;9.202;2023-05-03T15:41:09;21.70;32.90
17208;DHT22;8720;48.488;9.202;2023-05-03T15:43:36;21.70;32.90
17208;DHT22;8720;48.488;9.202;2023-05-03T15:46:04;21.70;33.10
17208;DHT22;8720;48.488;9.202;2023-05-03T15:48:32;21.80;33.20
17208;DHT22;8720;48.488;9.202;2023-05-03T15:51:00;21.80;33.10
17208;DHT22;8720;48.488;9.202;2023-05-03T15:53:28;21.80;32.30
17208;DHT22;8720;48.488;9.202;2023-05-03T15:55:55;21.70;32.60
17208;DHT22;8720;48.488;9.202;2023-05-03T15:58:22;21.70;32.80
17208;DHT22;8720;48.488;9.202;2023-05-03T16:00:50;21.60;32.60
17208;DHT22;8720;48.488;9.202;2023-05-03T16:03:18;21.60;32.80
17208;DHT22;8720;48.488;9.202;2023-05-03T16:05:46;21.50;32.80